createdAt,value
2022-10-08T00:02:15.737Z,100.00
2022-10-08T00:07:24.085Z,100.00
2022-10-08T00:12:30.759Z,100.00
2022-10-08T00:17:40.112Z,100.00
2022-10-08T00:22:46.239Z,100.00
2022-10-08T00:27:51.957Z,100.00
2022-10-08T00:33:00.983Z,100.00
2022-10-08T00:38:11.938Z,100.00
2022-10-08T00:43:40.429Z,100.00
2022-10-08T00:48:50.101Z,100.00
2022-10-08T00:53:58.986Z,100.00
2022-10-08T00:59:03.594Z,100.00
2022-10-08T01:04:31.450Z,100.00
2022-10-08T01:09:50.263Z,100.00
2022-10-08T01:15:04.038Z,100.00
2022-10-08T01:20:41.826Z,100.00
2022-10-08T01:26:01.054Z,100.00
2022-10-08T01:31:27.214Z,100.00
2022-10-08T01:36:39.458Z,100.00
2022-10-08T01:41:53.442Z,100.00
2022-10-08T01:47:05.104Z,100.00
2022-10-08T01:52:17.016Z,100.00
2022-10-08T01:57:33.511Z,100.00
2022-10-08T02:02:47.526Z,100.00
2022-10-08T02:13:22.651Z,100.00
2022-10-08T02:18:59.801Z,100.00
2022-10-08T02:24:15.322Z,100.00
2022-10-08T02:29:24.659Z,100.00
2022-10-08T02:34:42.631Z,100.00
2022-10-08T02:39:58.411Z,100.00
2022-10-08T02:45:11.576Z,100.00
2022-10-08T02:50:32.528Z,100.00
2022-10-08T02:55:46.880Z,100.00
2022-10-08T03:01:27.495Z,100.00
2022-10-08T03:06:36.187Z,100.00
2022-10-08T03:11:43.310Z,100.00
2022-10-08T03:16:58.171Z,100.00
2022-10-08T03:22:09.360Z,100.00
2022-10-08T03:27:19.224Z,100.00
2022-10-08T03:32:23.361Z,100.00
2022-10-08T03:37:34.602Z,100.00
2022-10-08T03:42:45.621Z,100.00
2022-10-08T03:47:55.106Z,100.00
2022-10-08T03:53:26.783Z,100.00
2022-10-08T03:58:31.410Z,100.00
2022-10-08T04:03:46.408Z,100.00
2022-10-08T04:09:08.143Z,100.00
2022-10-08T04:14:17.215Z,100.00
2022-10-08T04:19:24.922Z,100.00
2022-10-08T04:24:37.157Z,100.00
2022-10-08T04:29:49.071Z,100.00
2022-10-08T04:34:57.181Z,100.00
2022-10-08T04:40:14.674Z,100.00
2022-10-08T04:45:24.496Z,100.00
2022-10-08T04:50:31.043Z,100.00
2022-10-08T04:55:38.760Z,100.00
2022-10-08T05:00:46.599Z,100.00
2022-10-08T05:06:01.665Z,100.00
2022-10-08T05:11:10.383Z,100.00
2022-10-08T05:16:20.279Z,100.00
2022-10-08T05:21:39.300Z,100.00
2022-10-08T05:27:04.021Z,100.00
2022-10-08T05:32:22.692Z,100.00
2022-10-08T05:37:28.133Z,100.00
2022-10-08T05:42:36.259Z,100.00
2022-10-08T05:47:45.295Z,100.00
2022-10-08T05:52:49.854Z,100.00
2022-10-08T05:58:17.544Z,100.00
2022-10-08T06:03:27.360Z,100.00
2022-10-08T06:08:40.302Z,100.00
2022-10-08T06:14:07.634Z,100.00
2022-10-08T06:19:13.753Z,100.00
2022-10-08T06:24:27.300Z,100.00
2022-10-08T06:29:44.157Z,100.00
2022-10-08T06:34:57.712Z,100.00
2022-10-08T06:40:02.860Z,100.00
2022-10-08T06:45:13.341Z,100.00
2022-10-08T06:50:18.573Z,100.00
2022-10-08T06:55:28.785Z,100.00
2022-10-08T07:00:35.191Z,100.00
2022-10-08T07:05:41.394Z,100.00
2022-10-08T07:10:52.542Z,99.26
2022-10-08T07:16:06.591Z,97.42
2022-10-08T07:21:18.723Z,95.69
2022-10-08T07:26:25.923Z,94.51
2022-10-08T07:31:44.477Z,91.21
2022-10-08T07:36:56.465Z,90.47
2022-10-08T07:42:03.431Z,89.26
2022-10-08T07:47:23.687Z,86.48
2022-10-08T07:52:33.160Z,85.64
2022-10-08T07:57:39.406Z,84.44
2022-10-08T08:02:47.093Z,83.26
2022-10-08T08:07:55.462Z,79.69
2022-10-08T08:13:04.143Z,79.08
2022-10-08T08:18:16.554Z,78.57
2022-10-08T08:23:42.330Z,78.31
2022-10-08T08:28:57.554Z,76.02
2022-10-08T08:34:09.916Z,75.59
2022-10-08T08:39:26.238Z,74.21
2022-10-08T08:44:43.442Z,73.46
2022-10-08T08:50:02.198Z,72.12
2022-10-08T08:55:19.415Z,70.91
2022-10-08T09:00:44.711Z,71.40
2022-10-08T09:06:14.445Z,69.54
2022-10-08T09:11:22.213Z,69.82
2022-10-08T09:16:32.524Z,67.73
2022-10-08T09:21:45.461Z,67.07
2022-10-08T09:26:51.244Z,65.39
2022-10-08T09:37:27.210Z,64.97
2022-10-08T09:42:30.244Z,64.55
2022-10-08T09:47:33.205Z,63.73
2022-10-08T09:52:40.333Z,63.33
2022-10-08T09:57:45.659Z,61.79
2022-10-08T10:02:54.332Z,61.18
2022-10-08T10:07:58.957Z,62.03
2022-10-08T10:13:06.489Z,59.66
2022-10-08T10:18:14.431Z,58.80
2022-10-08T10:23:23.723Z,59.12
2022-10-08T10:28:36.243Z,59.48
2022-10-08T10:33:49.259Z,59.56
2022-10-08T10:39:06.231Z,60.12
2022-10-08T10:44:14.376Z,60.70
2022-10-08T10:49:20.170Z,60.84
2022-10-08T10:54:56.277Z,61.44
2022-10-08T11:00:06.019Z,61.03
2022-10-08T11:05:17.382Z,62.06
2022-10-08T11:10:33.453Z,62.52
2022-10-08T11:15:44.617Z,62.76
2022-10-08T11:20:59.762Z,63.55
2022-10-08T11:26:22.013Z,62.76
2022-10-08T11:31:36.755Z,63.04
2022-10-08T11:36:46.322Z,63.42
2022-10-08T11:42:01.829Z,63.50
2022-10-08T11:47:44.563Z,64.05
2022-10-08T11:53:01.420Z,63.06
2022-10-08T11:58:37.039Z,63.34
2022-10-08T12:03:47.706Z,65.56
2022-10-08T12:09:00.050Z,68.41
2022-10-08T12:14:47.549Z,67.89
2022-10-08T12:20:31.093Z,67.47
2022-10-08T12:25:43.064Z,67.82
2022-10-08T12:31:19.151Z,67.52
2022-10-08T12:36:48.821Z,68.17
2022-10-08T12:42:15.398Z,68.51
2022-10-08T12:47:45.763Z,68.14
2022-10-08T12:52:56.672Z,68.00
2022-10-08T12:58:04.838Z,67.34
2022-10-08T13:03:28.638Z,68.38
2022-10-08T13:08:36.256Z,67.22
2022-10-08T13:13:59.181Z,66.95
2022-10-08T13:19:31.348Z,66.68
2022-10-08T13:24:46.539Z,67.23
2022-10-08T13:30:13.557Z,67.11
2022-10-08T13:35:42.071Z,67.12
2022-10-08T13:41:06.264Z,67.56
2022-10-08T13:46:15.518Z,68.02
2022-10-08T13:51:57.644Z,68.02
2022-10-08T13:57:13.240Z,69.51
2022-10-08T14:02:45.271Z,69.35
2022-10-08T14:07:55.160Z,69.79
2022-10-08T14:13:03.944Z,70.11
2022-10-08T14:18:10.647Z,69.96
2022-10-08T14:23:35.853Z,70.47
2022-10-08T14:28:54.699Z,70.40
2022-10-08T14:34:06.123Z,70.35
2022-10-08T14:39:45.916Z,70.04
2022-10-08T14:55:49.247Z,70.32
2022-10-08T15:01:00.278Z,70.62
2022-10-08T15:06:13.969Z,71.40
2022-10-08T15:11:29.332Z,70.93
2022-10-08T15:16:38.646Z,69.71
2022-10-08T15:21:55.495Z,69.86
2022-10-08T15:27:15.245Z,69.00
2022-10-08T15:32:30.489Z,69.66
2022-10-08T15:37:39.149Z,69.76
2022-10-08T15:43:08.453Z,70.65
2022-10-08T15:48:19.549Z,70.55
2022-10-08T15:53:29.003Z,70.68
2022-10-08T15:58:50.807Z,70.56
2022-10-08T16:04:06.186Z,70.60
2022-10-08T16:09:17.130Z,67.68
2022-10-08T16:14:38.131Z,65.78
2022-10-08T16:20:04.249Z,65.11
2022-10-08T16:25:18.591Z,63.98
2022-10-08T16:30:36.687Z,63.43
2022-10-08T16:35:46.768Z,63.26
2022-10-08T16:40:56.283Z,62.22
2022-10-08T16:46:05.135Z,63.18
2022-10-08T16:51:12.429Z,63.62
2022-10-08T16:56:18.416Z,64.50
2022-10-08T17:01:25.721Z,64.90
2022-10-08T17:06:36.109Z,65.68
2022-10-08T17:11:49.075Z,66.56
2022-10-08T17:17:07.092Z,67.01
2022-10-08T17:22:19.212Z,67.90
2022-10-08T17:27:28.514Z,68.47
2022-10-08T17:32:53.114Z,69.52
2022-10-08T17:38:01.194Z,69.52
2022-10-08T17:43:09.905Z,69.78
2022-10-08T17:48:23.846Z,70.38
2022-10-08T17:53:32.265Z,70.86
2022-10-08T17:58:47.001Z,71.35
2022-10-08T18:04:09.827Z,72.26
2022-10-08T18:09:19.955Z,72.32
2022-10-08T18:14:26.695Z,72.52
2022-10-08T18:19:38.491Z,72.72
2022-10-08T18:24:47.033Z,73.25
2022-10-08T18:29:52.395Z,74.15
2022-10-08T18:35:00.928Z,74.72
2022-10-08T18:40:12.968Z,74.80
2022-10-08T18:45:21.527Z,75.15
2022-10-08T18:50:35.374Z,75.46
2022-10-08T18:55:42.726Z,75.98
2022-10-08T19:00:52.172Z,76.21
2022-10-08T19:05:59.666Z,77.21
2022-10-08T19:11:14.336Z,77.68
2022-10-08T19:16:23.299Z,77.46
2022-10-08T19:21:37.191Z,77.81
2022-10-08T19:26:42.445Z,78.13
2022-10-08T19:32:03.591Z,77.69
2022-10-08T19:37:10.056Z,78.28
2022-10-08T19:42:16.941Z,78.70
2022-10-08T19:47:32.641Z,78.17
2022-10-08T19:52:43.185Z,79.02
2022-10-08T19:57:55.587Z,78.81
2022-10-08T20:03:15.733Z,79.31
2022-10-08T20:08:24.387Z,80.06
2022-10-08T20:13:30.778Z,80.10
2022-10-08T20:18:39.245Z,80.52
2022-10-08T20:23:47.404Z,81.13
2022-10-08T20:29:07.910Z,81.56
2022-10-08T20:34:28.345Z,81.78
2022-10-08T20:39:34.878Z,82.28
2022-10-08T20:44:39.670Z,82.52
2022-10-08T20:49:46.159Z,82.18
2022-10-08T20:54:52.336Z,83.16
2022-10-08T20:59:59.957Z,84.33
2022-10-08T21:05:08.249Z,84.37
2022-10-08T21:10:15.656Z,84.68
2022-10-08T21:15:27.156Z,85.50
2022-10-08T21:20:38.778Z,86.03
2022-10-08T21:25:50.251Z,86.82
2022-10-08T21:30:55.168Z,86.64
2022-10-08T21:36:11.322Z,87.14
2022-10-08T21:41:32.617Z,88.07
2022-10-08T21:46:50.676Z,88.35
2022-10-08T21:51:56.487Z,89.39
2022-10-08T21:57:16.085Z,91.37
2022-10-08T22:02:27.667Z,89.68
2022-10-08T22:07:34.242Z,91.00
2022-10-08T22:12:57.761Z,91.09
2022-10-08T22:18:09.268Z,91.58
2022-10-08T22:23:18.616Z,91.81
2022-10-08T22:28:29.822Z,91.23
2022-10-08T22:33:37.594Z,92.48
2022-10-08T22:38:49.434Z,92.28
2022-10-08T22:44:00.938Z,93.17
2022-10-08T22:49:16.438Z,92.68
2022-10-08T22:54:25.344Z,92.86
2022-10-08T22:59:42.918Z,94.53
2022-10-08T23:05:04.369Z,93.45
2022-10-08T23:10:26.791Z,94.24
2022-10-08T23:16:00.509Z,94.58
2022-10-08T23:21:12.781Z,94.27
2022-10-08T23:26:29.092Z,95.21
2022-10-08T23:31:38.096Z,95.00
2022-10-08T23:36:47.074Z,95.20
2022-10-08T23:41:55.303Z,95.09
2022-10-08T23:47:22.384Z,96.45
2022-10-08T23:52:32.130Z,95.37
2022-10-08T23:57:42.347Z,96.17
